Time;durP1;ratioP1;P1;durP2;ratioP2;P2;SDS_P1;SDS_P2;PMS_P1;PMS_P2;Temp;Humidity;BMP_temperature;BMP_pressure;BME280_temperature;BME280_humidity;BME280_pressure;Samples;Min_cycle;Max_cycle;Signal;HPM_P1;HPM_P2
2023/04/18 00:00:56;;;;;;;4.05;2.17;;;;;;;18.81;50.03;100921.13;4863814;29;20057;-55
2023/04/18 00:03:23;;;;;;;3.95;2.70;;;;;;;18.82;50.09;100913.94;4863813;29;20060;-55
2023/04/18 00:05:51;;;;;;;5.45;2.67;;;;;;;18.82;49.99;100913.94;4863948;29;20056;-53
2023/04/18 00:08:18;;;;;;;3.40;2.10;;;;;;;18.81;50.00;100910.41;4863982;29;20045;-54
2023/04/18 00:10:46;;;;;;;3.55;2.40;;;;;;;18.80;49.98;100897.97;4863823;29;20061;-59
2023/04/18 00:13:13;;;;;;;3.80;2.65;;;;;;;18.81;49.97;100899.66;4863749;29;20045;-59
2023/04/18 00:15:42;;;;;;;3.72;2.15;;;;;;;18.81;50.04;100898.81;4863699;29;20053;-59
2023/04/18 00:18:10;;;;;;;4.38;2.40;;;;;;;18.82;49.93;100900.50;4862483;29;20045;-59
2023/04/18 00:20:38;;;;;;;3.78;2.30;;;;;;;18.81;50.17;100907.72;4862680;29;20520;-59
2023/04/18 00:23:06;;;;;;;3.80;2.15;;;;;;;18.81;50.07;100893.47;4863560;29;20520;-59
2023/04/18 00:25:34;;;;;;;3.08;2.05;;;;;;;18.81;50.10;100901.50;4863562;29;20420;-59
2023/04/18 00:28:01;;;;;;;6.60;2.88;;;;;;;18.81;50.10;100898.81;4863678;29;20050;-59
2023/04/18 00:30:28;;;;;;;4.18;2.55;;;;;;;18.79;50.16;100888.19;4863774;29;20057;-53
2023/04/18 00:32:56;;;;;;;3.75;2.25;;;;;;;18.80;50.20;100887.25;4863230;29;20048;-56
2023/04/18 00:35:23;;;;;;;5.30;2.33;;;;;;;18.79;50.21;100882.84;4863009;29;20058;-53
2023/04/18 00:37:51;;;;;;;4.28;2.20;;;;;;;18.78;50.05;100887.34;4863157;29;20056;-55
2023/04/18 00:40:18;;;;;;;3.50;2.42;;;;;;;18.79;50.01;100885.50;4863289;29;20065;-54
2023/04/18 00:42:46;;;;;;;3.40;2.13;;;;;;;18.79;50.09;100880.16;4863088;29;20065;-56
2023/04/18 00:45:13;;;;;;;3.72;2.25;;;;;;;18.78;50.13;100884.66;4863173;29;20520;-56
2023/04/18 00:47:41;;;;;;;3.53;2.30;;;;;;;18.81;50.32;100882.72;4862706;29;20057;-54
2023/04/18 00:50:09;;;;;;;3.67;2.58;;;;;;;18.80;50.26;100881.00;4863142;29;20057;-56
2023/04/18 00:52:37;;;;;;;3.42;2.40;;;;;;;18.78;50.24;100882.00;4862779;29;20053;-55
2023/04/18 00:55:06;;;;;;;5.38;2.58;;;;;;;18.78;50.32;100882.00;4862891;29;20400;-54
2023/04/18 00:57:34;;;;;;;5.03;2.40;;;;;;;18.80;50.17;100886.38;4862858;29;20049;-55
2023/04/18 01:00:08;;;;;;;3.28;2.30;;;;;;;18.79;50.31;100885.50;4861504;29;20080;-59
2023/04/18 01:02:36;;;;;;;4.55;2.10;;;;;;;18.78;50.30;100889.19;4862832;29;20042;-59
2023/04/18 01:05:05;;;;;;;3.42;1.83;;;;;;;18.78;50.16;100883.81;4862763;29;20056;-59
2023/04/18 01:07:36;;;;;;;4.57;2.20;;;;;;;18.78;50.30;100891.88;4862578;29;20049;-59
2023/04/18 01:10:04;;;;;;;3.70;2.00;;;;;;;18.80;50.24;100891.72;4862671;29;20057;-55
2023/04/18 01:12:31;;;;;;;3.00;2.10;;;;;;;18.78;50.17;100887.34;4861320;29;20065;-55
2023/04/18 01:14:59;;;;;;;5.85;2.45;;;;;;;18.77;50.13;100882.13;4861113;29;20068;-55
2023/04/18 01:17:28;;;;;;;3.53;2.03;;;;;;;18.78;50.19;100886.50;4861196;29;20050;-53
2023/04/18 01:19:55;;;;;;;3.30;2.08;;;;;;;18.78;50.28;100892.72;4862442;29;20053;-59
2023/04/18 01:22:23;;;;;;;3.40;2.30;;;;;;;18.77;50.30;100888.34;4862445;29;20385;-59
2023/04/18 01:24:50;;;;;;;5.13;2.15;;;;;;;18.78;50.17;100886.50;4862395;29;20400;-59
2023/04/18 01:27:18;;;;;;;3.53;2.00;;;;;;;18.77;50.26;100884.81;4862389;29;20489;-59
2023/04/18 01:29:45;;;;;;;3.10;2.03;;;;;;;18.77;50.26;100887.50;4860819;29;20412;-55
2023/04/18 01:32:13;;;;;;;2.83;1.90;;;;;;;18.76;50.26;100878.59;4861789;29;20057;-55
2023/04/18 01:34:40;;;;;;;4.82;2.40;;;;;;;18.76;50.14;100870.56;4862043;29;20492;-55
2023/04/18 01:37:07;;;;;;;2.92;2.05;;;;;;;18.76;50.23;100875.91;4862216;29;20497;-52
2023/04/18 01:39:35;;;;;;;3.65;2.20;;;;;;;18.76;50.35;100873.22;4862300;29;20056;-55
2023/04/18 01:42:02;;;;;;;6.20;2.03;;;;;;;18.76;50.26;100870.56;4862131;29;20054;-53
2023/04/18 01:44:29;;;;;;;3.58;2.10;;;;;;;18.77;50.40;100871.41;4860682;29;20057;-55
2023/04/18 01:46:57;;;;;;;3.83;2.05;;;;;;;18.77;50.36;100868.72;4862008;29;20069;-56
2023/04/18 01:49:24;;;;;;;3.00;1.92;;;;;;;18.76;50.20;100862.50;4862001;29;20127;-54
2023/04/18 01:51:51;;;;;;;2.85;2.15;;;;;;;18.76;50.22;100861.66;4860625;29;20515;-54
2023/04/18 01:54:20;;;;;;;3.40;1.88;;;;;;;18.76;50.32;100861.66;4861862;29;20392;-55
2023/04/18 01:56:48;;;;;;;3.30;1.70;;;;;;;18.76;50.25;100853.59;4861695;29;20053;-55
2023/04/18 01:59:15;;;;;;;3.10;2.08;;;;;;;18.76;50.24;100854.47;4860533;29;20064;-53
2023/04/18 02:01:43;;;;;;;2.80;1.77;;;;;;;18.76;50.15;100853.59;4860660;29;20058;-55
2023/04/18 02:04:11;;;;;;;3.20;2.15;;;;;;;18.74;50.38;100851.03;4861772;29;20134;-54
2023/04/18 02:06:39;;;;;;;3.58;2.40;;;;;;;18.75;50.33;100855.41;4860807;29;20049;-55
2023/04/18 02:09:06;;;;;;;3.65;1.80;;;;;;;18.76;50.33;100853.59;4860564;29;20505;-54
2023/04/18 02:11:33;;;;;;;3.17;2.40;;;;;;;18.75;50.36;100851.88;4861580;29;20489;-55
2023/04/18 02:14:02;;;;;;;3.15;1.80;;;;;;;18.75;50.32;100852.72;4860162;29;20064;-53
2023/04/18 02:16:30;;;;;;;3.42;1.90;;;;;;;18.74;50.36;100856.41;4861568;29;20058;-55
2023/04/18 02:18:57;;;;;;;2.45;1.65;;;;;;;18.76;50.28;100861.66;4860184;29;20050;-55
2023/04/18 02:21:24;;;;;;;2.67;1.70;;;;;;;18.75;50.20;100855.41;4860450;29;20053;-55
2023/04/18 02:23:52;;;;;;;3.30;1.75;;;;;;;18.75;50.30;100857.25;4861480;29;20054;-55
2023/04/18 02:26:21;;;;;;;3.05;1.70;;;;;;;18.74;50.38;100851.03;4860063;29;20054;-54
2023/04/18 02:28:49;;;;;;;3.10;1.90;;;;;;;18.75;50.31;100854.56;4861529;29;20046;-58
2023/04/18 02:31:16;;;;;;;2.75;2.03;;;;;;;18.74;50.23;100856.41;4859630;29;20050;-59
2023/04/18 02:33:46;;;;;;;3.22;1.55;;;;;;;18.74;50.18;100861.75;4861367;29;20049;-59
2023/04/18 02:36:13;;;;;;;3.20;2.15;;;;;;;18.74;50.42;100859.09;4861315;29;20056;-59
2023/04/18 02:38:44;;;;;;;2.67;1.75;;;;;;;18.74;50.39;100852.88;4861285;29;20037;-55
2023/04/18 02:41:16;;;;;;;2.45;1.60;;;;;;;18.74;50.34;100852.88;4859772;29;20064;-59
2023/04/18 02:43:43;;;;;;;3.20;2.08;;;;;;;18.74;50.41;100850.19;4860402;29;20054;-59
2023/04/18 02:46:13;;;;;;;2.75;1.80;;;;;;;18.75;50.40;100858.09;4860017;29;20500;-59
2023/04/18 02:48:41;;;;;;;3.05;1.95;;;;;;;18.74;50.37;100853.72;4859686;29;20057;-59
2023/04/18 02:51:12;;;;;;;2.80;1.73;;;;;;;18.74;50.23;100859.09;4859637;29;20054;-59
2023/04/18 02:53:39;;;;;;;5.70;1.63;;;;;;;18.74;50.32;100863.59;4859907;29;20389;-59
2023/04/18 02:56:07;;;;;;;2.83;1.63;;;;;;;18.73;50.29;100860.06;4859755;29;20061;-59
2023/04/18 02:59:06;;;;;;;3.97;1.95;;;;;;;18.73;50.43;100854.72;4860901;29;20046;-59
2023/04/18 03:02:01;;;;;;;2.63;1.80;;;;;;;18.73;50.65;100854.72;4859790;29;20389;-54
2023/04/18 03:04:29;;;;;;;4.43;1.92;;;;;;;18.73;50.65;100851.19;4859744;29;20053;-54
2023/04/18 03:07:00;;;;;;;3.38;1.60;;;;;;;18.73;50.56;100851.19;4859885;29;20508;-54
2023/04/18 03:09:31;;;;;;;2.67;1.70;;;;;;;18.73;50.58;100854.72;4859445;29;20054;-58
2023/04/18 03:12:04;;;;;;;3.10;2.20;;;;;;;18.74;50.56;100850.19;4859668;29;20401;-59
2023/04/18 03:14:33;;;;;;;4.93;1.83;;;;;;;18.73;50.72;100849.34;4859717;29;20065;-59
2023/04/18 03:17:01;;;;;;;3.40;1.92;;;;;;;18.73;50.53;100849.34;4859583;29;20049;-59
2023/04/18 03:19:35;;;;;;;2.83;1.63;;;;;;;18.72;50.64;100849.47;4859979;29;20063;-59
2023/04/18 03:22:07;;;;;;;4.22;1.80;;;;;;;18.73;50.65;100851.19;4859929;29;20068;-59
2023/04/18 03:24:38;;;;;;;2.78;1.50;;;;;;;18.72;50.64;100852.16;4859550;29;20049;-59
2023/04/18 03:27:07;;;;;;;2.78;1.60;;;;;;;18.72;50.73;100847.66;4859899;29;20061;-59
2023/04/18 03:29:37;;;;;;;3.78;2.13;;;;;;;18.72;50.52;100853.00;4859742;29;20061;-59
2023/04/18 03:32:05;;;;;;;3.95;1.67;;;;;;;18.72;50.73;100852.16;4861092;29;20401;-59
2023/04/18 03:34:32;;;;;;;3.28;1.90;;;;;;;18.73;50.62;100843.13;4859736;29;20081;-59
2023/04/18 03:37:01;;;;;;;3.15;1.80;;;;;;;18.71;50.83;100851.28;4859595;29;20488;-59
2023/04/18 03:39:32;;;;;;;3.00;2.03;;;;;;;18.72;50.66;100852.16;4859590;29;20053;-55
2023/04/18 03:42:00;;;;;;;4.45;1.95;;;;;;;18.71;50.63;100848.59;4859547;29;20069;-55
2023/04/18 03:44:28;;;;;;;3.83;1.65;;;;;;;18.72;50.76;100860.22;4844738;29;20389;-56
2023/04/18 03:46:56;;;;;;;3.65;2.08;;;;;;;18.71;50.54;100862.00;4859499;29;20057;-55
2023/04/18 03:49:24;;;;;;;4.15;1.90;;;;;;;18.72;50.60;100866.41;4859529;29;20397;-55
2023/04/18 03:51:52;;;;;;;2.50;1.60;;;;;;;18.71;50.52;100853.97;4860844;29;20057;-55
2023/04/18 03:54:19;;;;;;;8.13;2.33;;;;;;;18.70;50.72;100868.34;4859917;29;20072;-52
2023/04/18 03:56:48;;;;;;;3.67;1.50;;;;;;;18.71;50.62;100867.38;4863673;29;20056;-55
2023/04/18 03:59:16;;;;;;;2.53;1.63;;;;;;;18.72;50.34;100865.56;4862664;29;20065;-54
2023/04/18 04:01:47;;;;;;;3.60;2.08;;;;;;;18.71;50.66;100867.38;4863099;29;20053;-56
2023/04/18 04:04:15;;;;;;;2.08;1.40;;;;;;;18.70;50.67;100860.31;4863033;29;20054;-55
2023/04/18 04:06:43;;;;;;;3.15;1.58;;;;;;;18.71;50.64;100871.88;4862832;29;20057;-55
2023/04/18 04:09:10;;;;;;;2.72;1.60;;;;;;;18.70;50.65;100871.03;4862325;29;20049;-56
2023/04/18 04:11:38;;;;;;;4.07;1.75;;;;;;;18.70;50.69;100876.41;4862638;29;20050;-54
2023/04/18 04:14:08;;;;;;;4.35;1.88;;;;;;;18.71;50.56;100871.88;4862491;29;20049;-55
2023/04/18 04:16:41;;;;;;;2.80;1.80;;;;;;;18.70;50.67;100871.03;4862679;29;20065;-55
2023/04/18 04:19:11;;;;;;;3.05;1.40;;;;;;;18.69;50.64;100869.31;4862494;29;20061;-54
2023/04/18 04:21:45;;;;;;;2.88;1.90;;;;;;;18.70;50.68;100873.72;4862160;29;20060;-55
2023/04/18 04:24:15;;;;;;;4.20;1.67;;;;;;;18.70;50.76;100878.25;4862108;29;20060;-54
2023/04/18 04:26:47;;;;;;;2.65;1.85;;;;;;;18.70;50.53;100886.28;4862385;29;20057;-52
2023/04/18 04:29:20;;;;;;;3.03;1.95;;;;;;;18.69;50.71;100884.56;4862953;29;20076;-55
2023/04/18 04:31:48;;;;;;;4.80;2.00;;;;;;;18.70;50.90;100880.91;4862458;29;20057;-54
2023/04/18 04:34:25;;;;;;;2.88;1.60;;;;;;;18.69;50.66;100880.03;4862472;29;20381;-54
2023/04/18 04:36:53;;;;;;;5.30;1.80;;;;;;;18.70;50.70;100878.25;4862210;29;20056;-55
2023/04/18 04:39:22;;;;;;;2.70;1.60;;;;;;;18.69;50.87;100879.19;4861918;29;20056;-59
2023/04/18 04:42:03;;;;;;;3.25;1.80;;;;;;;18.69;50.92;100887.25;4861981;29;20069;-59
2023/04/18 04:44:40;;;;;;;2.65;1.60;;;;;;;18.69;50.69;100893.44;4862189;29;20060;-59
2023/04/18 04:47:08;;;;;;;2.80;1.70;;;;;;;18.69;50.76;100896.13;4862214;29;20412;-53
2023/04/18 04:49:38;;;;;;;2.28;1.38;;;;;;;18.68;50.65;100897.13;4861536;29;20481;-55
2023/04/18 04:52:05;;;;;;;2.33;1.40;;;;;;;18.68;50.62;100894.44;4863241;29;20057;-55
2023/04/18 04:54:33;;;;;;;3.90;1.73;;;;;;;18.68;50.58;100899.78;4861639;29;20049;-59
2023/04/18 04:57:02;;;;;;;3.00;1.80;;;;;;;18.68;50.71;100899.78;4861925;29;20060;-59
2023/04/18 04:59:30;;;;;;;2.40;1.40;;;;;;;18.68;50.77;100899.78;4861752;29;20061;-54
2023/04/18 05:01:57;;;;;;;2.45;1.65;;;;;;;18.68;50.66;100901.63;4863429;29;20061;-53
2023/04/18 05:04:24;;;;;;;2.30;1.58;;;;;;;18.69;50.94;100908.69;4861493;29;20065;-55
2023/04/18 05:06:53;;;;;;;2.53;1.58;;;;;;;18.69;50.66;100917.59;4861306;29;20038;-54
2023/04/18 05:09:20;;;;;;;3.17;1.75;;;;;;;18.67;50.71;100914.16;4862311;29;20440;-58
2023/04/18 05:11:48;;;;;;;2.47;1.42;;;;;;;18.68;50.66;100915.88;4862826;29;20504;-59
2023/04/18 05:14:16;;;;;;;3.03;1.88;;;;;;;18.68;50.79;100912.34;4862729;29;20046;-59
2023/04/18 05:16:43;;;;;;;2.55;1.63;;;;;;;18.68;50.95;100907.00;4862699;29;20053;-59
2023/04/18 05:19:11;;;;;;;2.65;1.67;;;;;;;18.68;50.99;100910.53;4862816;29;20046;-59
2023/04/18 05:21:38;;;;;;;3.28;1.73;;;;;;;18.68;50.84;100915.03;4862556;29;20060;-59
2023/04/18 05:24:06;;;;;;;4.72;1.48;;;;;;;18.67;50.80;100914.16;4862605;29;20049;-59
2023/04/18 05:26:33;;;;;;;3.53;1.90;;;;;;;18.67;50.74;100919.53;4862724;29;20056;-59
2023/04/18 05:29:01;;;;;;;2.90;1.90;;;;;;;18.67;50.75;100918.69;4862661;29;20045;-58
2023/04/18 05:31:28;;;;;;;4.03;1.63;;;;;;;18.67;50.75;100916.00;4861333;29;20060;-59
2023/04/18 05:33:55;;;;;;;2.58;1.70;;;;;;;18.67;50.80;100924.03;4862108;29;20149;-59
2023/04/18 05:36:23;;;;;;;2.35;1.27;;;;;;;18.66;50.89;100931.22;4861933;29;20053;-59
2023/04/18 05:38:51;;;;;;;3.25;1.70;;;;;;;18.67;50.66;100927.56;4862669;29;20045;-58
2023/04/18 05:41:18;;;;;;;3.80;1.88;;;;;;;18.66;50.73;100925.88;4862084;29;20054;-54
2023/04/18 05:43:46;;;;;;;2.65;1.77;;;;;;;18.66;50.84;100930.38;4862405;29;20062;-55
2023/04/18 05:46:31;;;;;;;3.28;1.70;;;;;;;18.66;50.88;100931.22;4862180;29;20076;-54
2023/04/18 05:48:58;;;;;;;5.80;1.90;;;;;;;18.67;50.64;100929.41;4862237;29;20045;-55
2023/04/18 05:51:27;;;;;;;2.33;1.45;;;;;;;18.66;51.03;100925.88;4862008;29;20049;-55
2023/04/18 05:53:54;;;;;;;2.40;1.42;;;;;;;18.67;51.15;100935.59;4860977;29;20056;-53
2023/04/18 05:56:22;;;;;;;2.88;1.60;;;;;;;18.66;51.06;100933.91;4861922;29;20377;-54
2023/04/18 05:58:50;;;;;;;2.38;1.50;;;;;;;18.67;51.33;100934.75;4862180;29;20033;-57
2023/04/18 06:01:17;;;;;;;2.40;1.40;;;;;;;18.67;51.28;100935.59;4861886;29;20465;-59
2023/04/18 06:03:45;;;;;;;2.70;1.75;;;;;;;18.67;51.16;100938.28;4861927;29;20049;-59
2023/04/18 06:06:13;;;;;;;2.58;1.75;;;;;;;18.66;51.16;100939.28;4861630;29;20504;-59
2023/04/18 06:08:40;;;;;;;11.20;2.00;;;;;;;18.67;51.24;100943.66;4861304;29;20049;-59
2023/04/18 06:11:07;;;;;;;2.15;1.40;;;;;;;18.67;51.24;100948.16;4861796;29;20057;-59
2023/04/18 06:13:36;;;;;;;3.08;1.90;;;;;;;18.66;51.18;100950.00;4861817;29;20061;-59
2023/04/18 06:16:04;;;;;;;3.17;1.50;;;;;;;18.66;51.26;100950.00;4861907;29;20049;-59
2023/04/18 06:18:31;;;;;;;2.90;1.67;;;;;;;18.66;51.18;100951.84;4859841;29;20052;-59
2023/04/18 06:20:59;;;;;;;4.07;1.90;;;;;;;18.66;51.04;100951.84;4861844;29;20049;-59
2023/04/18 06:23:26;;;;;;;3.17;1.65;;;;;;;18.66;51.24;100947.31;4861697;29;20049;-59
2023/04/18 06:25:55;;;;;;;3.00;2.00;;;;;;;18.66;51.17;100950.00;4860548;29;20053;-59
2023/04/18 06:28:23;;;;;;;3.92;2.38;;;;;;;18.66;51.24;100954.53;4861534;29;20060;-59
2023/04/18 06:30:50;;;;;;;2.78;1.80;;;;;;;18.66;51.12;100950.00;4861702;29;20053;-59
2023/04/18 06:33:17;;;;;;;2.63;1.63;;;;;;;18.67;51.18;100956.22;4861680;29;20053;-59
2023/04/18 06:35:45;;;;;;;3.08;1.42;;;;;;;18.66;51.16;100950.00;4861504;29;20053;-59
2023/04/18 06:38:12;;;;;;;2.80;1.75;;;;;;;18.66;51.22;100952.69;4861341;29;20053;-59
2023/04/18 06:40:40;;;;;;;3.33;1.88;;;;;;;18.65;51.19;100953.66;4861597;29;20054;-59
2023/04/18 06:43:07;;;;;;;2.53;1.52;;;;;;;18.66;51.23;100960.72;4861341;29;20053;-59
2023/04/18 06:45:35;;;;;;;3.05;2.03;;;;;;;18.66;51.17;100955.38;4861677;29;20060;-59
2023/04/18 06:48:03;;;;;;;2.55;1.70;;;;;;;18.67;51.27;100950.84;4861219;29;20552;-59
2023/04/18 06:50:30;;;;;;;3.13;1.85;;;;;;;18.67;51.28;100958.91;4861247;29;20049;-59
2023/04/18 06:52:57;;;;;;;4.18;1.90;;;;;;;18.67;51.27;100956.22;4861284;29;20076;-59
2023/04/18 06:55:25;;;;;;;2.63;1.50;;;;;;;18.67;51.21;100959.75;4860080;29;20060;-59
2023/04/18 06:57:52;;;;;;;4.50;1.67;;;;;;;18.67;51.28;100959.75;4861370;29;20372;-59
2023/04/18 07:00:20;;;;;;;3.15;1.88;;;;;;;18.67;51.37;100967.78;4861085;29;20045;-59
2023/04/18 07:02:47;;;;;;;2.70;1.70;;;;;;;18.68;51.17;100964.16;4861361;29;20667;-58
2023/04/18 07:05:15;;;;;;;4.75;2.03;;;;;;;18.70;51.40;100959.53;4859677;29;20049;-59
2023/04/18 07:07:42;;;;;;;4.93;1.70;;;;;;;18.72;51.35;100964.78;4860998;29;20054;-59
2023/04/18 07:10:10;;;;;;;4.82;1.60;;;;;;;18.74;51.92;100961.00;4860924;29;20049;-55
2023/04/18 07:12:37;;;;;;;4.47;1.70;;;;;;;18.74;51.96;100961.00;4861141;29;20049;-58
2023/04/18 07:15:05;;;;;;;3.15;1.80;;;;;;;18.75;52.06;100968.06;4860989;29;20411;-58
2023/04/18 07:17:33;;;;;;;3.95;1.77;;;;;;;18.76;51.71;100966.25;4861047;29;20068;-58
2023/04/18 07:20:00;;;;;;;3.78;1.63;;;;;;;18.78;51.90;100972.31;4859958;29;20041;-55
2023/04/18 07:22:28;;;;;;;2.38;1.30;;;;;;;18.80;51.86;100969.50;4860413;29;20064;-57
2023/04/18 07:24:55;;;;;;;5.07;1.80;;;;;;;18.82;51.94;100973.78;4859655;29;20050;-54
2023/04/18 07:27:23;;;;;;;4.40;1.80;;;;;;;18.85;52.28;100972.69;4860680;29;20060;-57
2023/04/18 07:29:50;;;;;;;2.58;1.50;;;;;;;18.86;52.14;100971.72;4861981;29;20060;-61
2023/04/18 07:32:17;;;;;;;3.90;1.90;;;;;;;18.87;52.38;100968.88;4864134;29;20053;-58
2023/04/18 07:34:45;;;;;;;6.93;2.00;;;;;;;18.89;52.20;100966.94;4864274;29;20053;-60
2023/04/18 07:37:13;;;;;;;5.38;1.80;;;;;;;18.91;52.19;100974.84;4863733;29;20050;-61
2023/04/18 07:39:41;;;;;;;3.90;2.00;;;;;;;18.92;52.34;100974.75;4864187;29;20492;-61
2023/04/18 07:42:10;;;;;;;3.75;1.92;;;;;;;18.94;52.45;100977.28;4864180;29;20053;-60
2023/04/18 07:44:37;;;;;;;4.80;1.80;;;;;;;18.96;52.49;100978.03;4864108;29;20054;-61
2023/04/18 07:47:08;;;;;;;4.32;2.50;;;;;;;18.96;51.27;100978.03;4864173;29;20045;-61
2023/04/18 07:49:37;;;;;;;6.32;2.78;;;;;;;18.96;50.17;100975.34;4864182;29;20053;-53
2023/04/18 07:52:04;;;;;;;6.85;3.15;;;;;;;18.97;50.09;100982.41;4864177;29;20503;-55
2023/04/18 07:54:31;;;;;;;6.70;2.63;;;;;;;18.98;50.77;100986.81;4863857;29;20056;-52
2023/04/18 07:56:59;;;;;;;4.50;2.10;;;;;;;18.99;51.75;100986.66;4864359;29;20054;-56
2023/04/18 07:59:28;;;;;;;7.97;2.00;;;;;;;19.00;51.88;100987.53;4863812;29;20049;-56
2023/04/18 08:01:55;;;;;;;6.75;2.67;;;;;;;19.01;51.85;100981.19;4863950;29;20053;-59
2023/04/18 08:04:23;;;;;;;5.40;2.08;;;;;;;19.03;51.97;100984.59;4863703;29;20049;-57
2023/04/18 08:06:53;;;;;;;5.35;2.20;;;;;;;19.05;51.73;100988.00;4863776;29;20061;-56
2023/04/18 08:09:22;;;;;;;5.40;2.40;;;;;;;19.07;52.09;100990.56;4862073;29;20061;-60
2023/04/18 08:11:50;;;;;;;4.85;2.05;;;;;;;19.07;51.81;100986.03;4863729;29;20049;-60
2023/04/18 08:14:17;;;;;;;6.40;2.47;;;;;;;19.09;51.90;100991.28;4863636;29;20049;-59
2023/04/18 08:16:44;;;;;;;5.15;2.40;;;;;;;19.10;51.95;100993.84;4863162;29;20060;-60
2023/04/18 08:19:12;;;;;;;6.20;2.15;;;;;;;19.09;51.73;100994.81;4863616;29;20404;-61
2023/04/18 08:21:40;;;;;;;5.00;2.25;;;;;;;19.11;51.56;100992.00;4863693;29;20060;-60
2023/04/18 08:24:07;;;;;;;7.18;2.47;;;;;;;19.11;50.66;101000.91;4863386;29;20675;-59
2023/04/18 08:26:34;;;;;;;5.90;2.70;;;;;;;19.11;50.39;100992.84;4863369;29;20053;-59
2023/04/18 08:29:02;;;;;;;8.93;2.60;;;;;;;19.12;50.96;100994.59;4863496;29;20050;-59
2023/04/18 08:31:30;;;;;;;7.60;2.60;;;;;;;19.13;50.30;101004.31;4863388;29;20041;-59
2023/04/18 08:33:58;;;;;;;4.78;2.40;;;;;;;19.15;50.63;101001.50;4863331;29;20057;-58
2023/04/18 08:36:25;;;;;;;8.18;2.60;;;;;;;19.14;51.25;100995.28;4863328;29;20053;-59
2023/04/18 08:38:52;;;;;;;5.90;2.33;;;;;;;19.16;51.26;101000.53;4863297;29;20056;-58
2023/04/18 08:41:23;;;;;;;5.05;2.00;;;;;;;19.16;51.45;100996.03;4862496;29;20046;-58
2023/04/18 08:43:51;;;;;;;5.93;2.45;;;;;;;19.16;50.94;101001.41;4863265;29;20053;-61
2023/04/18 08:46:18;;;;;;;4.05;2.75;;;;;;;19.18;50.90;101003.94;4859023;29;20057;-60
2023/04/18 08:48:50;;;;;;;6.13;2.33;;;;;;;19.17;50.93;101005.78;4863509;29;20068;-59
2023/04/18 08:51:17;;;;;;;4.18;2.15;;;;;;;19.17;51.04;100997.72;4862904;29;20057;-53
2023/04/18 08:53:49;;;;;;;7.78;2.55;;;;;;;19.19;50.78;101005.63;4862963;29;20140;-57
2023/04/18 08:56:28;;;;;;;3.45;2.15;;;;;;;19.19;50.66;101011.84;4861753;29;20054;-57
2023/04/18 08:58:59;;;;;;;7.15;2.38;;;;;;;19.20;50.58;101002.84;4862742;29;20056;-59
2023/04/18 09:01:51;;;;;;;4.35;2.17;;;;;;;19.21;50.65;101009.91;4862744;29;20056;-59
2023/04/18 09:04:34;;;;;;;6.35;2.90;;;;;;;19.21;50.67;101012.59;4862623;29;20049;-59
2023/04/18 09:07:04;;;;;;;4.20;2.50;;;;;;;19.21;50.29;101004.56;4862846;29;20396;-59
2023/04/18 09:09:44;;;;;;;4.53;2.42;;;;;;;19.21;49.91;101004.56;4862209;29;20469;-59
2023/04/18 09:12:21;;;;;;;4.25;2.67;;;;;;;19.22;49.57;101000.88;4862540;29;20037;-59
2023/04/18 09:14:50;;;;;;;6.28;2.72;;;;;;;19.23;49.61;101012.47;4862089;29;20046;-59
2023/04/18 09:17:42;;;;;;;5.97;2.97;;;;;;;19.23;49.83;101005.25;4862496;29;20053;-59
2023/04/18 09:20:11;;;;;;;4.63;2.55;;;;;;;19.23;50.09;101002.56;4862390;29;20061;-58
2023/04/18 09:22:49;;;;;;;6.57;2.47;;;;;;;19.26;49.94;101009.53;4861245;29;20057;-58
2023/04/18 09:25:33;;;;;;;7.53;2.40;;;;;;;19.25;50.38;101011.38;4862246;29;20388;-58
2023/04/18 09:28:19;;;;;;;4.78;2.45;;;;;;;19.25;49.99;101011.38;4861187;29;20057;-58
2023/04/18 09:30:50;;;;;;;3.72;2.72;;;;;;;19.27;49.18;101013.91;4862140;29;20412;-56
2023/04/18 09:33:33;;;;;;;5.72;2.70;;;;;;;19.27;48.99;101013.91;4861353;29;20053;-54
2023/04/18 09:36:17;;;;;;;4.72;2.80;;;;;;;19.26;47.94;101001.47;4862632;29;20045;-56
2023/04/18 09:38:46;;;;;;;3.65;2.40;;;;;;;19.26;48.73;101002.31;4862440;29;20061;-59
2023/04/18 09:41:15;;;;;;;4.03;2.33;;;;;;;19.29;49.34;101008.44;4861930;29;20054;-59
2023/04/18 09:43:47;;;;;;;4.25;2.40;;;;;;;19.29;49.35;101000.38;4862025;29;20468;-59
2023/04/18 09:46:16;;;;;;;5.97;2.42;;;;;;;19.30;49.28;101004.75;4861941;29;20057;-58
2023/04/18 09:48:43;;;;;;;4.30;2.28;;;;;;;19.31;48.70;101009.16;4862100;29;20056;-58
2023/04/18 09:51:15;;;;;;;4.25;2.70;;;;;;;19.31;48.74;101001.09;4861759;29;20057;-57
2023/04/18 09:53:46;;;;;;;3.78;2.30;;;;;;;19.32;49.00;101005.47;4861541;29;20056;-58
2023/04/18 09:56:23;;;;;;;4.80;2.40;;;;;;;19.33;49.21;101007.19;4861778;29;20056;-58
2023/04/18 09:58:55;;;;;;;6.78;2.83;;;;;;;19.33;48.91;101007.19;4861903;29;20052;-58
2023/04/18 10:01:27;;;;;;;4.35;2.38;;;;;;;19.34;49.18;101000.84;4861902;29;20045;-56
2023/04/18 10:03:56;;;;;;;4.78;2.33;;;;;;;19.34;49.03;100999.00;4861671;29;20060;-55
2023/04/18 10:06:26;;;;;;;4.55;2.42;;;;;;;19.35;48.92;100999.84;4861591;29;20053;-56
2023/04/18 10:08:54;;;;;;;3.78;2.53;;;;;;;19.35;48.92;101007.91;4861552;29;20057;-58
2023/04/18 10:11:23;;;;;;;3.63;2.15;;;;;;;19.36;48.57;101005.09;4861404;29;20049;-60
2023/04/18 10:13:56;;;;;;;3.75;2.50;;;;;;;19.36;48.24;101001.56;4860599;29;20053;-58
2023/04/18 10:16:24;;;;;;;;;;;;;;;19.36;48.41;100991.66;4862305;29;20061;-59
2023/04/18 10:18:52;;;;;;;3.42;2.53;;;;;;;19.37;48.49;101003.28;4861633;29;19931;-57
2023/04/18 10:21:20;;;;;;;3.50;2.33;;;;;;;19.37;48.13;100998.75;4861311;29;20501;-57
2023/04/18 10:23:47;;;;;;;3.30;2.17;;;;;;;19.39;48.47;100998.63;4860963;29;20054;-58
2023/04/18 10:26:15;;;;;;;4.00;2.30;;;;;;;19.39;48.67;101004.84;4861032;29;20488;-60
2023/04/18 10:28:55;;;;;;;4.05;2.25;;;;;;;19.40;48.23;101003.00;4860301;29;20049;-59
2023/04/18 10:31:25;;;;;;;3.63;2.60;;;;;;;19.40;48.42;100993.13;4861300;29;20056;-51
2023/04/18 10:33:58;;;;;;;4.32;2.72;;;;;;;19.42;54.12;101001.06;4860889;29;20049;-50
2023/04/18 10:36:29;;;;;;;5.20;2.80;;;;;;;19.40;56.15;101000.31;4860449;29;20097;-54
2023/04/18 10:39:04;;;;;;;5.55;3.60;;;;;;;19.37;48.26;100993.38;4860070;29;20064;-59
2023/04/18 10:41:33;;;;;;;3.88;2.92;;;;;;;19.38;55.76;100995.09;4861054;29;20050;-59
2023/04/18 10:46:35;;;;;;;4.63;3.15;;;;;;;19.33;56.49;100996.47;4861217;29;20054;-59
2023/04/18 10:49:18;;;;;;;6.97;3.45;;;;;;;19.29;56.54;100986.97;4861300;29;20397;-55
2023/04/18 10:51:51;;;;;;;5.40;3.08;;;;;;;19.29;54.17;100990.50;4860569;29;20049;-55
2023/04/18 10:54:31;;;;;;;;;;;;;;;19.29;55.33;100989.66;4860076;29;20500;-57
2023/04/18 10:57:03;;;;;;;4.03;3.25;;;;;;;19.26;56.47;100986.22;4861065;29;19931;-58
2023/04/18 10:59:33;;;;;;;4.15;2.88;;;;;;;19.24;56.77;100982.84;4861317;29;20060;-59
2023/04/18 11:02:21;;;;;;;5.00;3.17;;;;;;;19.22;56.92;100976.72;4860952;29;20046;-60
2023/04/18 11:04:50;;;;;;;4.20;3.50;;;;;;;19.21;57.73;100980.41;4862750;29;20053;-58
2023/04/18 11:07:19;;;;;;;4.63;3.40;;;;;;;19.21;57.74;100979.53;4864722;29;20404;-59
2023/04/18 11:09:55;;;;;;;3.80;2.97;;;;;;;19.18;58.08;100977.97;4864559;29;20057;-59
2023/04/18 11:12:22;;;;;;;4.50;3.58;;;;;;;19.17;58.32;100973.56;4865045;29;20057;-60
2023/04/18 11:14:51;;;;;;;3.88;3.10;;;;;;;19.17;58.75;100965.53;4864790;29;20049;-60
2023/04/18 11:17:22;;;;;;;3.50;2.97;;;;;;;19.17;58.82;100970.03;4864624;29;20060;-60
2023/04/18 11:19:58;;;;;;;5.80;3.17;;;;;;;19.16;59.01;100966.50;4864728;29;20053;-55
2023/04/18 11:22:25;;;;;;;4.53;3.17;;;;;;;19.16;59.05;100963.81;4864515;29;20061;-55
2023/04/18 11:24:59;;;;;;;4.68;3.47;;;;;;;19.16;59.53;100969.19;4864402;29;20049;-57
2023/04/18 11:27:28;;;;;;;3.65;2.90;;;;;;;19.17;59.77;100967.34;4864583;29;20412;-57
2023/04/18 11:29:56;;;;;;;3.83;3.08;;;;;;;19.15;59.79;100967.47;4864357;29;20054;-60
2023/04/18 11:32:23;;;;;;;5.80;3.17;;;;;;;19.14;60.05;100971.13;4864440;29;20048;-60
2023/04/18 11:34:52;;;;;;;6.10;3.50;;;;;;;19.14;59.71;100964.91;4864257;29;20050;-60
2023/04/18 11:37:20;;;;;;;7.43;3.67;;;;;;;19.15;60.48;100972.00;4864348;29;20049;-60
2023/04/18 11:39:50;;;;;;;3.88;2.90;;;;;;;19.14;59.29;100956.88;4864059;29;20054;-60